createdAt,value
2023-04-26T00:00:49.629Z,15.65
2023-04-26T00:03:18.391Z,10.73
2023-04-26T00:05:48.459Z,14.63
2023-04-26T00:08:17.189Z,14.93
2023-04-26T00:10:45.955Z,18.30
2023-04-26T00:13:14.531Z,15.75
2023-04-26T00:15:43.148Z,25.85
2023-04-26T00:18:13.363Z,16.00
2023-04-26T00:20:44.847Z,15.93
2023-04-26T00:23:13.748Z,15.45
2023-04-26T00:25:42.517Z,12.45
2023-04-26T00:28:11.258Z,15.05
2023-04-26T00:30:42.826Z,13.52
2023-04-26T00:33:11.465Z,12.82
2023-04-26T00:35:40.073Z,11.50
2023-04-26T00:38:08.758Z,17.08
2023-04-26T00:40:37.559Z,14.80
2023-04-26T00:43:07.628Z,17.65
2023-04-26T00:45:36.719Z,14.65
2023-04-26T00:48:05.871Z,14.23
2023-04-26T00:50:34.972Z,16.02
2023-04-26T00:53:05.053Z,23.05
2023-04-26T00:55:34.058Z,17.83
2023-04-26T00:58:02.835Z,12.55
2023-04-26T01:00:31.496Z,16.10
2023-04-26T01:03:02.958Z,16.38
2023-04-26T01:05:32.084Z,14.73
2023-04-26T01:08:03.215Z,19.23
2023-04-26T01:10:36.754Z,15.07
2023-04-26T01:13:06.259Z,17.40
2023-04-26T01:15:37.392Z,14.85
2023-04-26T01:18:06.289Z,13.70
2023-04-26T01:20:35.454Z,20.63
2023-04-26T01:23:04.248Z,13.45
2023-04-26T01:25:33.874Z,16.77
2023-04-26T01:28:03.088Z,22.63
2023-04-26T01:30:31.833Z,20.77
2023-04-26T01:33:03.198Z,16.50
2023-04-26T01:35:34.452Z,18.70
2023-04-26T01:38:04.932Z,20.10
2023-04-26T01:40:33.832Z,15.55
2023-04-26T01:43:04.054Z,16.20
2023-04-26T01:45:34.974Z,16.52
2023-04-26T01:48:22.469Z,24.23
2023-04-26T01:50:51.354Z,16.92
2023-04-26T01:53:20.272Z,15.38
2023-04-26T01:55:49.109Z,20.38
2023-04-26T01:58:20.412Z,19.13
2023-04-26T02:00:50.907Z,16.67
2023-04-26T02:03:19.691Z,22.98
2023-04-26T02:05:49.066Z,19.33
2023-04-26T02:08:17.931Z,18.52
2023-04-26T02:10:46.956Z,23.77
2023-04-26T02:13:16.529Z,18.63
2023-04-26T02:15:49.480Z,23.58
2023-04-26T02:18:21.471Z,18.40
2023-04-26T02:20:51.970Z,13.13
2023-04-26T02:23:20.753Z,22.30
2023-04-26T02:25:50.473Z,29.63
2023-04-26T02:28:19.196Z,14.38
2023-04-26T02:30:48.675Z,20.90
2023-04-26T02:33:17.392Z,25.23
2023-04-26T02:35:46.455Z,14.55
2023-04-26T02:38:15.214Z,26.33
2023-04-26T02:40:43.974Z,16.40
2023-04-26T02:43:14.312Z,18.88
2023-04-26T02:45:44.198Z,17.30
2023-04-26T02:48:15.029Z,13.95
2023-04-26T02:50:43.751Z,16.38
2023-04-26T02:53:15.171Z,16.45
2023-04-26T02:55:44.441Z,17.63
2023-04-26T02:58:13.830Z,14.70
2023-04-26T03:00:48.531Z,14.82
2023-04-26T03:03:18.248Z,19.55
2023-04-26T03:05:47.848Z,15.02
2023-04-26T03:08:16.597Z,23.60
2023-04-26T03:10:48.454Z,18.48
2023-04-26T03:13:17.213Z,25.02
2023-04-26T03:15:47.507Z,21.65
2023-04-26T03:18:16.655Z,26.67
2023-04-26T03:20:47.140Z,14.40
2023-04-26T03:23:17.390Z,17.20
2023-04-26T03:25:47.733Z,49.45
2023-04-26T03:28:16.890Z,19.33
2023-04-26T03:30:45.819Z,17.27
2023-04-26T03:33:15.009Z,23.95
2023-04-26T03:35:45.106Z,20.25
2023-04-26T03:38:14.592Z,30.83
2023-04-26T03:40:44.171Z,28.50
2023-04-26T03:43:17.207Z,39.92
2023-04-26T03:45:50.099Z,25.35
2023-04-26T03:48:19.291Z,32.30
2023-04-26T03:50:48.149Z,19.60
2023-04-26T03:53:17.597Z,18.50
2023-04-26T03:55:46.653Z,15.50
2023-04-26T03:58:16.878Z,34.90
2023-04-26T04:00:48.384Z,33.13
2023-04-26T04:03:17.702Z,26.48
2023-04-26T04:05:46.766Z,16.70
2023-04-26T04:08:16.551Z,21.50
2023-04-26T04:10:46.491Z,23.35
2023-04-26T04:13:15.556Z,24.77
2023-04-26T04:15:44.329Z,29.42
2023-04-26T04:18:13.565Z,42.67
2023-04-26T04:20:43.272Z,39.50
2023-04-26T04:23:11.931Z,26.83
2023-04-26T04:25:42.499Z,27.00
2023-04-26T04:28:16.988Z,43.47
2023-04-26T04:30:48.128Z,27.48
2023-04-26T04:33:18.630Z,29.38
2023-04-26T04:35:47.823Z,67.05
2023-04-26T04:38:16.898Z,108.38
2023-04-26T04:40:46.181Z,101.57
2023-04-26T04:43:16.686Z,68.13
2023-04-26T04:45:45.669Z,75.43
2023-04-26T04:48:14.472Z,61.13
2023-04-26T04:50:43.971Z,32.75
2023-04-26T04:53:16.082Z,29.00
2023-04-26T04:55:45.993Z,18.83
2023-04-26T04:58:17.622Z,21.05
2023-04-26T05:00:47.511Z,11.93
2023-04-26T05:03:28.766Z,13.45
2023-04-26T05:05:58.089Z,19.05
2023-04-26T05:08:26.872Z,20.35
2023-04-26T05:10:58.173Z,21.45
2023-04-26T05:13:27.010Z,17.25
2023-04-26T05:15:59.050Z,27.77
2023-04-26T05:18:27.964Z,28.20
2023-04-26T05:20:56.932Z,19.75
2023-04-26T05:23:27.049Z,14.68
2023-04-26T05:25:56.395Z,14.07
2023-04-26T05:28:45.742Z,15.57
2023-04-26T05:31:25.093Z,26.35
2023-04-26T05:34:05.929Z,74.90
2023-04-26T05:36:39.844Z,23.52
2023-04-26T05:39:09.279Z,25.42
2023-04-26T05:41:37.960Z,18.42
2023-04-26T05:44:07.235Z,23.45
2023-04-26T05:46:36.539Z,19.55
2023-04-26T05:49:07.154Z,22.75
2023-04-26T05:51:39.325Z,20.25
2023-04-26T05:54:08.334Z,31.80
2023-04-26T05:56:37.417Z,53.63
2023-04-26T05:59:06.820Z,37.53
2023-04-26T06:01:36.856Z,27.25
2023-04-26T06:04:07.183Z,28.85
2023-04-26T06:06:49.656Z,19.50
2023-04-26T06:09:20.160Z,25.13
2023-04-26T06:11:49.618Z,32.92
2023-04-26T06:14:29.397Z,16.75
2023-04-26T06:17:03.233Z,25.27
2023-04-26T06:19:32.261Z,21.48
2023-04-26T06:22:01.034Z,26.77
2023-04-26T06:24:29.810Z,22.02
2023-04-26T06:26:58.528Z,17.88
2023-04-26T06:29:27.382Z,22.90
2023-04-26T06:31:56.177Z,42.20
2023-04-26T06:34:26.491Z,28.80
2023-04-26T06:36:55.338Z,22.88
2023-04-26T06:39:26.585Z,18.73
2023-04-26T06:41:55.374Z,17.88
2023-04-26T06:44:31.733Z,21.73
2023-04-26T06:47:04.295Z,17.77
2023-04-26T06:49:33.756Z,20.80
2023-04-26T06:52:05.072Z,20.35
2023-04-26T06:54:37.798Z,17.17
2023-04-26T06:57:08.958Z,31.25
2023-04-26T06:59:37.682Z,72.18
2023-04-26T07:02:06.619Z,29.42
2023-04-26T07:04:35.890Z,14.68
2023-04-26T07:07:05.540Z,58.47
2023-04-26T07:09:34.827Z,16.20
2023-04-26T07:12:03.834Z,17.50
2023-04-26T07:14:32.791Z,14.43
2023-04-26T07:17:01.702Z,18.73
2023-04-26T07:19:30.399Z,18.80
2023-04-26T07:21:59.465Z,14.15
2023-04-26T07:24:28.280Z,13.77
2023-04-26T07:26:57.972Z,17.77
2023-04-26T07:29:27.274Z,14.30
2023-04-26T07:31:57.895Z,20.50
2023-04-26T07:34:26.894Z,30.23
2023-04-26T07:36:55.573Z,18.02
2023-04-26T07:39:24.678Z,10.23
2023-04-26T07:41:53.605Z,13.50
2023-04-26T07:44:22.926Z,23.08
2023-04-26T07:46:52.432Z,11.52
2023-04-26T07:49:21.057Z,21.50
2023-04-26T07:51:52.077Z,20.98
2023-04-26T07:54:21.060Z,18.48
2023-04-26T07:56:50.233Z,27.23
2023-04-26T07:59:18.892Z,26.17
2023-04-26T08:01:51.246Z,17.23
2023-04-26T08:04:33.902Z,18.48
2023-04-26T08:07:03.472Z,18.85
2023-04-26T08:09:32.153Z,21.42
2023-04-26T08:12:01.140Z,26.05
2023-04-26T08:14:30.921Z,17.33
2023-04-26T08:16:59.814Z,19.00
2023-04-26T08:19:33.477Z,19.20
2023-04-26T08:22:02.702Z,18.23
2023-04-26T08:24:31.610Z,24.58
2023-04-26T08:27:00.515Z,16.08
2023-04-26T08:29:29.245Z,21.10
2023-04-26T08:31:58.810Z,15.25
2023-04-26T08:34:29.184Z,18.08
2023-04-26T08:36:58.305Z,18.92
2023-04-26T08:39:27.130Z,15.65
2023-04-26T08:41:56.621Z,18.02
2023-04-26T08:44:26.433Z,27.85
2023-04-26T08:47:23.728Z,22.88
2023-04-26T08:50:01.850Z,18.88
2023-04-26T08:52:32.693Z,25.83
2023-04-26T08:55:02.001Z,21.55
2023-04-26T08:57:34.402Z,21.77
2023-04-26T09:00:10.917Z,40.72
2023-04-26T09:02:43.525Z,22.63
2023-04-26T09:05:12.863Z,18.95
2023-04-26T09:07:44.042Z,19.95
2023-04-26T09:10:14.502Z,17.40
2023-04-26T09:12:43.499Z,22.42
2023-04-26T09:15:12.487Z,24.70
2023-04-26T09:17:45.078Z,20.38
2023-04-26T09:20:24.752Z,19.08
2023-04-26T09:22:55.555Z,23.67
2023-04-26T09:25:32.197Z,25.88
2023-04-26T09:28:02.436Z,23.63
2023-04-26T09:30:33.138Z,21.67
2023-04-26T09:33:07.441Z,40.80
2023-04-26T09:35:41.851Z,25.85
2023-04-26T09:38:15.710Z,24.92
2023-04-26T09:40:49.355Z,35.28
2023-04-26T09:43:19.423Z,30.80
2023-04-26T09:45:58.904Z,33.40
2023-04-26T09:48:35.165Z,20.75
2023-04-26T09:51:12.775Z,21.83
2023-04-26T09:53:51.733Z,20.45
2023-04-26T09:56:21.572Z,29.48
2023-04-26T09:59:02.028Z,32.33
2023-04-26T10:01:31.468Z,28.40
2023-04-26T10:04:05.242Z,32.63
2023-04-26T10:06:34.243Z,21.83
2023-04-26T10:09:05.895Z,99.55
2023-04-26T10:11:37.497Z,62.10
2023-04-26T10:14:07.710Z,47.88
2023-04-26T10:16:38.018Z,96.40
2023-04-26T10:19:06.673Z,86.00
2023-04-26T10:21:39.338Z,47.25
2023-04-26T10:24:08.588Z,69.10
2023-04-26T10:26:55.280Z,26.95
2023-04-26T10:29:26.610Z,30.27
2023-04-26T10:32:11.530Z,24.17
2023-04-26T10:34:40.419Z,34.33
2023-04-26T10:37:13.570Z,38.95
2023-04-26T10:39:44.790Z,20.85
2023-04-26T10:42:31.139Z,50.38
2023-04-26T10:45:29.454Z,46.55
2023-04-26T10:48:18.979Z,41.03
2023-04-26T10:51:03.115Z,37.45
2023-04-26T10:53:54.167Z,25.55
2023-04-26T10:56:26.017Z,18.58
2023-04-26T10:59:33.275Z,21.55
2023-04-26T11:02:05.009Z,23.63
2023-04-26T11:04:54.795Z,19.75
2023-04-26T11:07:44.806Z,17.15
2023-04-26T11:10:24.147Z,20.88
2023-04-26T11:13:07.293Z,35.42
2023-04-26T11:15:39.265Z,15.65
2023-04-26T11:18:08.381Z,21.98
2023-04-26T11:20:37.138Z,16.10
2023-04-26T11:23:09.725Z,24.20
2023-04-26T11:25:41.016Z,40.47
2023-04-26T11:28:09.934Z,19.30
2023-04-26T11:30:38.833Z,19.23
2023-04-26T11:33:07.562Z,29.60
2023-04-26T11:35:37.133Z,25.35
2023-04-26T11:38:06.604Z,38.13
2023-04-26T11:40:37.426Z,28.63
2023-04-26T11:43:10.532Z,44.77
2023-04-26T11:45:40.560Z,32.83
2023-04-26T11:48:13.543Z,25.20
2023-04-26T11:50:43.696Z,25.60
2023-04-26T11:53:12.335Z,16.65
2023-04-26T11:55:41.931Z,16.15
2023-04-26T11:58:16.768Z,20.20
2023-04-26T12:01:02.559Z,19.40
2023-04-26T12:03:38.370Z,23.52
2023-04-26T12:06:07.737Z,24.13
2023-04-26T12:08:36.870Z,20.63
2023-04-26T12:11:08.914Z,14.30
2023-04-26T12:13:41.404Z,27.05
2023-04-26T12:16:22.304Z,17.17
2023-04-26T12:18:59.661Z,23.15
2023-04-26T12:21:30.742Z,33.40
2023-04-26T12:24:00.040Z,26.83
2023-04-26T12:26:44.222Z,32.97
2023-04-26T12:29:13.219Z,29.58
2023-04-26T12:31:42.463Z,21.65
2023-04-26T12:34:11.581Z,35.53
2023-04-26T12:36:45.146Z,22.98
2023-04-26T12:39:16.388Z,21.77
2023-04-26T12:41:47.084Z,15.20
2023-04-26T12:44:15.798Z,19.98
2023-04-26T12:46:44.778Z,33.80
2023-04-26T12:49:14.207Z,29.42
2023-04-26T12:51:43.105Z,40.97
2023-04-26T12:54:12.337Z,28.45
2023-04-26T12:56:45.153Z,30.80
2023-04-26T12:59:14.011Z,29.02
2023-04-26T13:01:42.699Z,26.23
2023-04-26T13:04:12.256Z,25.92
2023-04-26T13:06:41.505Z,25.48
2023-04-26T13:09:13.523Z,41.90
2023-04-26T13:11:43.055Z,24.60
2023-04-26T13:14:12.123Z,40.47
2023-04-26T13:16:44.612Z,24.15
2023-04-26T13:19:13.536Z,23.30
2023-04-26T13:21:42.816Z,28.70
2023-04-26T13:24:12.095Z,22.48
2023-04-26T13:26:40.885Z,24.25
2023-04-26T13:29:09.634Z,26.02
2023-04-26T13:31:40.520Z,41.35
2023-04-26T13:34:10.562Z,29.15
2023-04-26T13:36:40.851Z,28.85
2023-04-26T13:39:10.686Z,41.08
2023-04-26T13:41:39.493Z,26.40
2023-04-26T13:44:08.547Z,33.60
2023-04-26T13:46:38.003Z,32.08
2023-04-26T13:49:11.193Z,39.63
2023-04-26T13:51:43.455Z,37.53
2023-04-26T13:54:15.373Z,29.80
2023-04-26T13:56:44.081Z,39.95
2023-04-26T13:59:13.020Z,58.60
2023-04-26T14:01:42.088Z,44.83
2023-04-26T14:04:11.482Z,38.90
2023-04-26T14:06:40.343Z,39.22
2023-04-26T14:09:10.223Z,35.00
2023-04-26T14:11:39.013Z,40.53
2023-04-26T14:14:07.915Z,31.75
2023-04-26T14:16:37.253Z,123.25
2023-04-26T14:19:06.292Z,54.10
2023-04-26T14:21:35.359Z,52.00
2023-04-26T14:24:04.540Z,105.78
2023-04-26T14:26:34.134Z,131.98
2023-04-26T14:29:02.980Z,74.03
2023-04-26T14:31:32.848Z,59.50
2023-04-26T14:34:01.685Z,42.17
2023-04-26T14:36:30.502Z,40.63
2023-04-26T14:38:59.727Z,36.10
2023-04-26T14:41:28.759Z,35.13
2023-04-26T14:43:57.955Z,39.88
2023-04-26T14:46:26.996Z,38.63
2023-04-26T14:48:56.035Z,40.13
2023-04-26T14:51:24.851Z,29.00
2023-04-26T14:53:54.116Z,31.63
2023-04-26T14:56:24.640Z,50.45
2023-04-26T14:58:53.679Z,39.97
2023-04-26T15:01:22.870Z,41.67
2023-04-26T15:03:52.105Z,72.60
2023-04-26T15:06:21.137Z,120.10
2023-04-26T15:08:50.742Z,70.75
2023-04-26T15:11:19.580Z,49.58
2023-04-26T15:13:48.440Z,64.18
2023-04-26T15:16:17.831Z,82.47
2023-04-26T15:18:46.536Z,51.85
2023-04-26T15:21:22.908Z,49.72
2023-04-26T15:23:52.052Z,46.83
2023-04-26T15:26:20.960Z,48.92
2023-04-26T15:28:50.173Z,70.60
2023-04-26T15:31:19.236Z,52.95
2023-04-26T15:33:51.715Z,50.42
2023-04-26T15:36:21.409Z,57.53
2023-04-26T15:38:50.955Z,54.50
2023-04-26T15:41:19.937Z,57.35
2023-04-26T15:43:54.055Z,49.65
2023-04-26T15:46:23.782Z,55.30
2023-04-26T15:48:52.593Z,44.30
2023-04-26T15:51:21.457Z,44.55
2023-04-26T15:53:52.262Z,50.25
2023-04-26T15:56:21.455Z,43.10
2023-04-26T15:58:51.081Z,38.30
2023-04-26T16:01:20.449Z,36.10
2023-04-26T16:03:50.258Z,33.85
2023-04-26T16:06:19.014Z,38.28
2023-04-26T16:08:47.892Z,40.05
2023-04-26T16:11:17.306Z,39.45
2023-04-26T16:13:46.555Z,36.72
2023-04-26T16:16:15.325Z,40.17
2023-04-26T16:18:45.077Z,34.70
2023-04-26T16:21:13.931Z,40.90
2023-04-26T16:23:45.978Z,38.30
2023-04-26T16:26:14.833Z,44.97
2023-04-26T16:28:43.878Z,28.25
2023-04-26T16:31:12.626Z,36.10
2023-04-26T16:33:41.525Z,33.58
2023-04-26T16:36:10.180Z,38.17
2023-04-26T16:38:39.317Z,42.03
2023-04-26T16:41:08.432Z,43.50
2023-04-26T16:43:37.420Z,31.83
2023-04-26T16:46:08.802Z,32.22
2023-04-26T16:48:39.520Z,26.38
2023-04-26T16:51:08.538Z,35.83
2023-04-26T16:53:38.448Z,34.30
2023-04-26T16:56:07.880Z,27.73
2023-04-26T16:58:36.801Z,36.65
2023-04-26T17:01:08.514Z,27.20
2023-04-26T17:03:37.916Z,27.90
2023-04-26T17:06:08.416Z,24.23
2023-04-26T17:08:37.615Z,31.60
2023-04-26T17:11:06.352Z,34.67
2023-04-26T17:13:35.188Z,31.13
2023-04-26T17:16:04.429Z,32.15
2023-04-26T17:18:36.170Z,29.58
2023-04-26T17:21:07.816Z,37.63
2023-04-26T17:23:36.632Z,34.35
2023-04-26T17:26:05.355Z,134.20
2023-04-26T17:28:34.423Z,44.78
2023-04-26T17:31:03.068Z,37.60
2023-04-26T17:33:32.614Z,42.35
2023-04-26T17:36:02.389Z,41.95
2023-04-26T17:38:31.261Z,110.07
2023-04-26T17:41:01.032Z,53.50
2023-04-26T17:43:29.805Z,59.17
2023-04-26T17:45:58.601Z,150.82
2023-04-26T17:48:29.825Z,44.97
2023-04-26T17:50:58.853Z,205.88
2023-04-26T17:53:28.098Z,59.13
2023-04-26T17:55:56.711Z,86.72
2023-04-26T17:58:26.372Z,80.30
2023-04-26T18:00:55.300Z,43.40
2023-04-26T18:03:24.360Z,69.35
2023-04-26T18:05:53.369Z,31.00
2023-04-26T18:08:22.292Z,114.18
2023-04-26T18:10:54.513Z,53.85
2023-04-26T18:13:23.329Z,51.65
2023-04-26T18:15:52.088Z,41.85
2023-04-26T18:18:20.896Z,40.38
2023-04-26T18:20:49.549Z,61.42
2023-04-26T18:23:18.830Z,54.65
2023-04-26T18:25:47.789Z,42.28
2023-04-26T18:28:16.888Z,51.45
2023-04-26T18:30:45.715Z,44.75
2023-04-26T18:33:14.721Z,26.80
2023-04-26T18:35:43.309Z,36.05
2023-04-26T18:38:11.937Z,28.63
2023-04-26T18:40:44.849Z,24.63
2023-04-26T18:43:13.809Z,35.70
2023-04-26T18:45:42.670Z,43.17
2023-04-26T18:48:12.596Z,32.17
2023-04-26T18:50:41.377Z,24.55
2023-04-26T18:53:10.208Z,32.60
2023-04-26T18:55:38.791Z,22.20
2023-04-26T18:58:07.448Z,19.80
2023-04-26T19:00:36.107Z,16.73
2023-04-26T19:03:05.436Z,20.08
2023-04-26T19:05:34.499Z,24.63
2023-04-26T19:08:03.072Z,22.92
2023-04-26T19:10:32.271Z,21.27
2023-04-26T19:13:01.130Z,22.60
2023-04-26T19:15:32.111Z,20.83
2023-04-26T19:18:03.639Z,15.70
2023-04-26T19:20:32.271Z,19.75
2023-04-26T19:23:00.952Z,17.35
2023-04-26T19:25:31.069Z,16.33
2023-04-26T19:27:59.777Z,14.98
2023-04-26T19:30:28.538Z,23.23
2023-04-26T19:32:57.913Z,17.27
2023-04-26T19:35:26.681Z,27.02
2023-04-26T19:37:55.411Z,19.48
2023-04-26T19:40:24.910Z,21.50
2023-04-26T19:42:53.532Z,21.95
2023-04-26T19:45:22.214Z,21.85
2023-04-26T19:47:50.871Z,17.75
2023-04-26T19:50:19.758Z,14.50
2023-04-26T19:52:48.536Z,14.57
2023-04-26T19:55:17.238Z,22.35
2023-04-26T19:57:45.981Z,16.52
2023-04-26T20:00:16.197Z,14.07
2023-04-26T20:02:47.477Z,12.65
2023-04-26T20:05:18.695Z,15.05
2023-04-26T20:07:47.536Z,12.98
2023-04-26T20:10:16.587Z,13.02
2023-04-26T20:12:45.804Z,14.60
2023-04-26T20:15:15.913Z,14.27
2023-04-26T20:17:44.575Z,10.88
2023-04-26T20:20:14.403Z,17.52
2023-04-26T20:22:43.036Z,16.33
2023-04-26T20:25:11.969Z,15.02
2023-04-26T20:27:40.613Z,12.25
2023-04-26T20:30:09.728Z,11.68
2023-04-26T20:32:38.607Z,8.05
2023-04-26T20:35:09.057Z,12.98
2023-04-26T20:37:37.841Z,12.02
2023-04-26T20:40:07.258Z,12.48
2023-04-26T20:42:36.202Z,12.20
2023-04-26T20:45:05.182Z,10.55
2023-04-26T20:47:34.028Z,8.68
2023-04-26T20:50:02.908Z,10.35
2023-04-26T20:52:34.721Z,14.75
2023-04-26T20:55:04.072Z,11.30
2023-04-26T20:57:32.799Z,13.05
2023-04-26T21:00:01.708Z,11.15
2023-04-26T21:02:30.524Z,14.10
2023-04-26T21:04:59.322Z,10.10
2023-04-26T21:07:28.505Z,11.25
2023-04-26T21:09:57.280Z,8.88
2023-04-26T21:12:26.501Z,14.95
2023-04-26T21:14:55.227Z,10.57
2023-04-26T21:17:24.193Z,13.70
2023-04-26T21:19:53.049Z,7.53
2023-04-26T21:22:21.694Z,10.50
2023-04-26T21:24:53.058Z,8.23
2023-04-26T21:27:21.817Z,8.00
2023-04-26T21:29:50.539Z,11.00
2023-04-26T21:32:19.121Z,9.35
2023-04-26T21:34:48.035Z,10.95
2023-04-26T21:37:17.441Z,6.43
2023-04-26T21:39:46.367Z,13.77
2023-04-26T21:42:15.218Z,8.18
2023-04-26T21:44:44.174Z,10.00
2023-04-26T21:47:12.899Z,17.30
2023-04-26T21:49:41.660Z,8.68
2023-04-26T21:52:10.500Z,6.30
2023-04-26T21:54:41.737Z,6.20
2023-04-26T21:57:10.459Z,6.18
2023-04-26T21:59:42.818Z,8.43
2023-04-26T22:02:11.683Z,6.25
2023-04-26T22:04:40.844Z,8.80
2023-04-26T22:07:09.767Z,6.97
2023-04-26T22:09:38.521Z,11.27
2023-04-26T22:12:07.382Z,5.80
2023-04-26T22:14:36.040Z,7.50
2023-04-26T22:17:04.859Z,9.30
2023-04-26T22:19:33.344Z,16.00
2023-04-26T22:22:02.265Z,9.60
2023-04-26T22:24:30.843Z,10.88
2023-04-26T22:26:59.700Z,7.38
2023-04-26T22:29:28.225Z,7.40
2023-04-26T22:31:57.252Z,8.77
2023-04-26T22:34:25.888Z,6.53
2023-04-26T22:37:03.438Z,6.95
2023-04-26T22:39:40.740Z,5.35
2023-04-26T22:42:09.378Z,6.13
2023-04-26T22:44:38.080Z,6.68
2023-04-26T22:47:06.758Z,8.98
2023-04-26T22:49:35.301Z,8.80
2023-04-26T22:52:09.694Z,7.00
2023-04-26T22:54:40.639Z,6.43
2023-04-26T22:57:09.498Z,9.27
2023-04-26T22:59:38.262Z,7.35
2023-04-26T23:02:07.150Z,10.05
2023-04-26T23:04:35.886Z,14.95
2023-04-26T23:07:04.740Z,7.30
2023-04-26T23:09:33.590Z,10.43
2023-04-26T23:12:04.079Z,9.13
2023-04-26T23:14:32.976Z,7.25
2023-04-26T23:17:01.769Z,7.53
2023-04-26T23:19:30.640Z,6.60
2023-04-26T23:21:59.378Z,6.90
2023-04-26T23:24:28.099Z,12.70
2023-04-26T23:26:56.929Z,12.15
2023-04-26T23:29:25.591Z,8.93
2023-04-26T23:31:54.376Z,7.35
2023-04-26T23:34:23.544Z,10.48
2023-04-26T23:36:52.357Z,9.52
2023-04-26T23:39:21.302Z,9.02
2023-04-26T23:41:50.026Z,7.90
2023-04-26T23:44:18.624Z,8.07
2023-04-26T23:46:47.389Z,8.20
2023-04-26T23:49:16.359Z,10.10
2023-04-26T23:51:44.939Z,9.02
2023-04-26T23:54:13.819Z,8.48
2023-04-26T23:56:42.455Z,9.07
2023-04-26T23:59:11.398Z,10.30
